sensor_id;sensor_type;location;lat;lon;timestamp;P1;durP1;ratioP1;P2;durP2;ratioP2
74541;SDS011;63015;45.378;20.360;2022-10-16T00:00:53;10.85;;;4.65;;
74541;SDS011;63015;45.378;20.360;2022-10-16T00:02:53;11.70;;;4.75;;
74541;SDS011;63015;45.378;20.360;2022-10-16T00:04:54;11.55;;;4.10;;
74541;SDS011;63015;45.378;20.360;2022-10-16T00:06:54;8.15;;;4.65;;
74541;SDS011;63015;45.378;20.360;2022-10-16T00:08:55;9.23;;;4.43;;
74541;SDS011;63015;45.378;20.360;2022-10-16T00:11:01;7.53;;;4.10;;
74541;SDS011;63015;45.378;20.360;2022-10-16T00:13:11;10.98;;;4.80;;
74541;SDS011;63015;45.378;20.360;2022-10-16T00:15:12;9.35;;;4.68;;
74541;SDS011;63015;45.378;20.360;2022-10-16T00:17:13;9.80;;;4.30;;
74541;SDS011;63015;45.378;20.360;2022-10-16T00:19:14;9.40;;;4.50;;
74541;SDS011;63015;45.378;20.360;2022-10-16T00:21:16;11.98;;;5.25;;
74541;SDS011;63015;45.378;20.360;2022-10-16T00:23:19;7.93;;;4.38;;
74541;SDS011;63015;45.378;20.360;2022-10-16T00:25:19;9.50;;;4.65;;
74541;SDS011;63015;45.378;20.360;2022-10-16T00:27:20;9.75;;;4.90;;
74541;SDS011;63015;45.378;20.360;2022-10-16T00:29:21;8.82;;;4.50;;
74541;SDS011;63015;45.378;20.360;2022-10-16T00:31:22;9.18;;;4.90;;
74541;SDS011;63015;45.378;20.360;2022-10-16T00:33:23;8.00;;;4.93;;
74541;SDS011;63015;45.378;20.360;2022-10-16T00:35:24;8.70;;;4.50;;
74541;SDS011;63015;45.378;20.360;2022-10-16T00:37:25;9.43;;;4.78;;
74541;SDS011;63015;45.378;20.360;2022-10-16T00:39:25;11.93;;;5.75;;
74541;SDS011;63015;45.378;20.360;2022-10-16T00:41:27;7.60;;;4.80;;
74541;SDS011;63015;45.378;20.360;2022-10-16T00:43:37;8.98;;;4.82;;
74541;SDS011;63015;45.378;20.360;2022-10-16T00:45:41;10.40;;;5.28;;
74541;SDS011;63015;45.378;20.360;2022-10-16T00:47:43;11.88;;;6.10;;
74541;SDS011;63015;45.378;20.360;2022-10-16T00:49:47;10.50;;;5.55;;
74541;SDS011;63015;45.378;20.360;2022-10-16T00:51:51;8.82;;;5.22;;
74541;SDS011;63015;45.378;20.360;2022-10-16T00:53:54;11.18;;;5.75;;
74541;SDS011;63015;45.378;20.360;2022-10-16T00:55:55;11.27;;;5.78;;
74541;SDS011;63015;45.378;20.360;2022-10-16T00:57:56;9.65;;;4.47;;
74541;SDS011;63015;45.378;20.360;2022-10-16T00:59:58;8.32;;;5.45;;
74541;SDS011;63015;45.378;20.360;2022-10-16T01:01:59;8.05;;;5.57;;
74541;SDS011;63015;45.378;20.360;2022-10-16T01:04:00;8.85;;;4.90;;
74541;SDS011;63015;45.378;20.360;2022-10-16T01:08:41;7.63;;;4.80;;
74541;SDS011;63015;45.378;20.360;2022-10-16T01:10:57;9.65;;;4.32;;
74541;SDS011;63015;45.378;20.360;2022-10-16T01:13:18;8.60;;;4.45;;
74541;SDS011;63015;45.378;20.360;2022-10-16T01:15:37;8.77;;;4.20;;
74541;SDS011;63015;45.378;20.360;2022-10-16T01:17:43;9.57;;;4.80;;
74541;SDS011;63015;45.378;20.360;2022-10-16T01:22:05;8.55;;;4.70;;
74541;SDS011;63015;45.378;20.360;2022-10-16T01:28:40;8.25;;;4.22;;
74541;SDS011;63015;45.378;20.360;2022-10-16T01:30:52;7.65;;;4.43;;
74541;SDS011;63015;45.378;20.360;2022-10-16T01:33:08;10.48;;;4.78;;
74541;SDS011;63015;45.378;20.360;2022-10-16T01:35:38;8.82;;;5.03;;
74541;SDS011;63015;45.378;20.360;2022-10-16T01:38:25;12.05;;;5.03;;
74541;SDS011;63015;45.378;20.360;2022-10-16T01:40:13;7.13;;;4.03;;
74541;SDS011;63015;45.378;20.360;2022-10-16T01:42:19;10.82;;;5.00;;
74541;SDS011;63015;45.378;20.360;2022-10-16T01:44:25;10.85;;;5.72;;
74541;SDS011;63015;45.378;20.360;2022-10-16T01:46:33;10.38;;;5.45;;
74541;SDS011;63015;45.378;20.360;2022-10-16T01:48:36;5.22;;;3.25;;
74541;SDS011;63015;45.378;20.360;2022-10-16T01:50:37;9.15;;;4.93;;
74541;SDS011;63015;45.378;20.360;2022-10-16T01:52:42;9.60;;;5.47;;
74541;SDS011;63015;45.378;20.360;2022-10-16T01:54:47;10.13;;;5.18;;
74541;SDS011;63015;45.378;20.360;2022-10-16T01:56:51;8.43;;;4.75;;
74541;SDS011;63015;45.378;20.360;2022-10-16T01:58:54;10.90;;;5.00;;
74541;SDS011;63015;45.378;20.360;2022-10-16T02:00:58;11.18;;;5.28;;
74541;SDS011;63015;45.378;20.360;2022-10-16T02:02:59;10.65;;;5.30;;
74541;SDS011;63015;45.378;20.360;2022-10-16T02:07:20;12.18;;;5.68;;
74541;SDS011;63015;45.378;20.360;2022-10-16T02:09:20;8.45;;;5.03;;
74541;SDS011;63015;45.378;20.360;2022-10-16T02:11:21;12.32;;;5.70;;
74541;SDS011;63015;45.378;20.360;2022-10-16T02:15:42;10.43;;;5.60;;
74541;SDS011;63015;45.378;20.360;2022-10-16T02:17:43;9.50;;;5.50;;
74541;SDS011;63015;45.378;20.360;2022-10-16T02:19:44;10.90;;;5.70;;
74541;SDS011;63015;45.378;20.360;2022-10-16T02:25:55;10.05;;;5.57;;
74541;SDS011;63015;45.378;20.360;2022-10-16T02:30:30;9.18;;;5.57;;
74541;SDS011;63015;45.378;20.360;2022-10-16T02:32:37;9.88;;;5.70;;
74541;SDS011;63015;45.378;20.360;2022-10-16T02:34:40;10.30;;;5.97;;
74541;SDS011;63015;45.378;20.360;2022-10-16T02:36:41;11.38;;;5.10;;
74541;SDS011;63015;45.378;20.360;2022-10-16T02:38:44;8.98;;;5.60;;
74541;SDS011;63015;45.378;20.360;2022-10-16T02:40:46;9.85;;;5.38;;
74541;SDS011;63015;45.378;20.360;2022-10-16T02:42:49;10.82;;;5.88;;
74541;SDS011;63015;45.378;20.360;2022-10-16T02:44:51;11.23;;;5.90;;
74541;SDS011;63015;45.378;20.360;2022-10-16T02:46:52;11.70;;;5.13;;
74541;SDS011;63015;45.378;20.360;2022-10-16T02:48:52;14.82;;;4.47;;
74541;SDS011;63015;45.378;20.360;2022-10-16T02:50:53;9.80;;;5.40;;
74541;SDS011;63015;45.378;20.360;2022-10-16T02:52:54;10.38;;;5.70;;
74541;SDS011;63015;45.378;20.360;2022-10-16T02:54:54;10.32;;;5.47;;
74541;SDS011;63015;45.378;20.360;2022-10-16T02:56:55;10.77;;;5.85;;
74541;SDS011;63015;45.378;20.360;2022-10-16T02:58:56;9.02;;;5.30;;
74541;SDS011;63015;45.378;20.360;2022-10-16T03:00:57;10.68;;;6.15;;
74541;SDS011;63015;45.378;20.360;2022-10-16T03:02:57;11.15;;;6.05;;
74541;SDS011;63015;45.378;20.360;2022-10-16T03:04:58;9.85;;;5.97;;
74541;SDS011;63015;45.378;20.360;2022-10-16T03:06:58;12.18;;;6.28;;
74541;SDS011;63015;45.378;20.360;2022-10-16T03:08:59;11.82;;;6.53;;
74541;SDS011;63015;45.378;20.360;2022-10-16T03:10:59;16.85;;;5.85;;
74541;SDS011;63015;45.378;20.360;2022-10-16T03:13:02;10.80;;;5.90;;
74541;SDS011;63015;45.378;20.360;2022-10-16T03:15:03;15.45;;;6.00;;
74541;SDS011;63015;45.378;20.360;2022-10-16T03:17:04;11.00;;;6.38;;
74541;SDS011;63015;45.378;20.360;2022-10-16T03:19:04;9.57;;;5.70;;
74541;SDS011;63015;45.378;20.360;2022-10-16T03:21:05;10.93;;;6.45;;
74541;SDS011;63015;45.378;20.360;2022-10-16T03:23:06;11.00;;;5.60;;
74541;SDS011;63015;45.378;20.360;2022-10-16T03:25:08;10.45;;;5.35;;
74541;SDS011;63015;45.378;20.360;2022-10-16T03:27:09;10.40;;;5.85;;
74541;SDS011;63015;45.378;20.360;2022-10-16T03:29:09;10.18;;;5.65;;
74541;SDS011;63015;45.378;20.360;2022-10-16T03:31:10;11.13;;;6.13;;
74541;SDS011;63015;45.378;20.360;2022-10-16T03:33:11;9.90;;;5.55;;
74541;SDS011;63015;45.378;20.360;2022-10-16T03:35:12;9.02;;;5.05;;
74541;SDS011;63015;45.378;20.360;2022-10-16T03:37:12;15.10;;;6.35;;
74541;SDS011;63015;45.378;20.360;2022-10-16T03:39:13;11.50;;;6.15;;
74541;SDS011;63015;45.378;20.360;2022-10-16T03:41:14;10.57;;;6.82;;
74541;SDS011;63015;45.378;20.360;2022-10-16T03:43:15;11.13;;;6.32;;
74541;SDS011;63015;45.378;20.360;2022-10-16T03:45:16;11.80;;;6.55;;
74541;SDS011;63015;45.378;20.360;2022-10-16T03:47:16;11.90;;;6.22;;
74541;SDS011;63015;45.378;20.360;2022-10-16T03:49:20;11.38;;;6.15;;
74541;SDS011;63015;45.378;20.360;2022-10-16T03:51:21;11.35;;;7.05;;
74541;SDS011;63015;45.378;20.360;2022-10-16T03:53:21;10.27;;;5.18;;
74541;SDS011;63015;45.378;20.360;2022-10-16T03:55:22;12.05;;;5.38;;
74541;SDS011;63015;45.378;20.360;2022-10-16T03:57:23;11.27;;;6.68;;
74541;SDS011;63015;45.378;20.360;2022-10-16T03:59:23;11.05;;;5.47;;
74541;SDS011;63015;45.378;20.360;2022-10-16T04:01:24;10.82;;;6.85;;
74541;SDS011;63015;45.378;20.360;2022-10-16T04:03:25;10.85;;;5.75;;
74541;SDS011;63015;45.378;20.360;2022-10-16T04:05:25;12.10;;;6.28;;
74541;SDS011;63015;45.378;20.360;2022-10-16T04:07:26;9.60;;;5.43;;
74541;SDS011;63015;45.378;20.360;2022-10-16T04:09:27;11.25;;;6.05;;
74541;SDS011;63015;45.378;20.360;2022-10-16T04:11:27;10.57;;;6.47;;
74541;SDS011;63015;45.378;20.360;2022-10-16T04:13:28;12.63;;;6.40;;
74541;SDS011;63015;45.378;20.360;2022-10-16T04:15:29;11.73;;;5.97;;
74541;SDS011;63015;45.378;20.360;2022-10-16T04:17:30;10.27;;;6.05;;
74541;SDS011;63015;45.378;20.360;2022-10-16T04:19:30;12.52;;;7.10;;
74541;SDS011;63015;45.378;20.360;2022-10-16T04:21:31;9.65;;;6.45;;
74541;SDS011;63015;45.378;20.360;2022-10-16T04:23:31;11.15;;;6.20;;
74541;SDS011;63015;45.378;20.360;2022-10-16T04:25:32;13.25;;;6.78;;
74541;SDS011;63015;45.378;20.360;2022-10-16T04:27:33;11.63;;;6.22;;
74541;SDS011;63015;45.378;20.360;2022-10-16T04:29:33;10.43;;;5.80;;
74541;SDS011;63015;45.378;20.360;2022-10-16T04:31:34;8.80;;;6.43;;
74541;SDS011;63015;45.378;20.360;2022-10-16T04:33:34;9.85;;;4.70;;
74541;SDS011;63015;45.378;20.360;2022-10-16T04:35:35;9.90;;;6.15;;
74541;SDS011;63015;45.378;20.360;2022-10-16T04:37:36;10.18;;;6.32;;
74541;SDS011;63015;45.378;20.360;2022-10-16T04:39:36;12.30;;;5.43;;
74541;SDS011;63015;45.378;20.360;2022-10-16T04:41:37;10.13;;;6.32;;
74541;SDS011;63015;45.378;20.360;2022-10-16T04:43:38;8.88;;;4.95;;
74541;SDS011;63015;45.378;20.360;2022-10-16T04:45:38;14.77;;;6.68;;
74541;SDS011;63015;45.378;20.360;2022-10-16T04:47:39;12.57;;;5.93;;
74541;SDS011;63015;45.378;20.360;2022-10-16T04:49:39;11.57;;;6.35;;
74541;SDS011;63015;45.378;20.360;2022-10-16T04:51:40;12.63;;;7.15;;
74541;SDS011;63015;45.378;20.360;2022-10-16T04:53:41;13.02;;;6.80;;
74541;SDS011;63015;45.378;20.360;2022-10-16T04:55:41;11.48;;;6.93;;
74541;SDS011;63015;45.378;20.360;2022-10-16T04:57:42;11.48;;;7.22;;
74541;SDS011;63015;45.378;20.360;2022-10-16T04:59:43;8.82;;;4.38;;
74541;SDS011;63015;45.378;20.360;2022-10-16T05:01:44;11.77;;;6.82;;
74541;SDS011;63015;45.378;20.360;2022-10-16T05:03:45;11.32;;;6.05;;
74541;SDS011;63015;45.378;20.360;2022-10-16T05:05:46;11.05;;;7.10;;
74541;SDS011;63015;45.378;20.360;2022-10-16T05:07:47;16.90;;;6.90;;
74541;SDS011;63015;45.378;20.360;2022-10-16T05:09:48;8.40;;;5.32;;
74541;SDS011;63015;45.378;20.360;2022-10-16T05:11:48;13.63;;;7.38;;
74541;SDS011;63015;45.378;20.360;2022-10-16T05:13:49;12.15;;;7.72;;
74541;SDS011;63015;45.378;20.360;2022-10-16T05:15:49;15.57;;;7.85;;
74541;SDS011;63015;45.378;20.360;2022-10-16T05:17:53;16.73;;;8.75;;
74541;SDS011;63015;45.378;20.360;2022-10-16T05:19:54;13.13;;;7.90;;
74541;SDS011;63015;45.378;20.360;2022-10-16T05:21:55;14.18;;;8.35;;
74541;SDS011;63015;45.378;20.360;2022-10-16T05:23:55;16.23;;;8.68;;
74541;SDS011;63015;45.378;20.360;2022-10-16T05:25:56;12.52;;;8.15;;
74541;SDS011;63015;45.378;20.360;2022-10-16T05:27:58;13.45;;;7.90;;
74541;SDS011;63015;45.378;20.360;2022-10-16T05:29:59;12.95;;;7.28;;
74541;SDS011;63015;45.378;20.360;2022-10-16T05:31:59;13.25;;;8.13;;
74541;SDS011;63015;45.378;20.360;2022-10-16T05:34:00;13.15;;;7.15;;
74541;SDS011;63015;45.378;20.360;2022-10-16T05:36:06;13.55;;;6.90;;
74541;SDS011;63015;45.378;20.360;2022-10-16T05:38:09;15.85;;;7.05;;
74541;SDS011;63015;45.378;20.360;2022-10-16T05:40:09;10.20;;;6.45;;
74541;SDS011;63015;45.378;20.360;2022-10-16T05:42:11;10.43;;;5.60;;
74541;SDS011;63015;45.378;20.360;2022-10-16T05:44:12;12.68;;;6.82;;
74541;SDS011;63015;45.378;20.360;2022-10-16T05:46:12;11.63;;;6.43;;
74541;SDS011;63015;45.378;20.360;2022-10-16T05:48:13;18.27;;;6.72;;
74541;SDS011;63015;45.378;20.360;2022-10-16T05:50:14;9.23;;;6.07;;
74541;SDS011;63015;45.378;20.360;2022-10-16T05:52:15;13.63;;;6.38;;
74541;SDS011;63015;45.378;20.360;2022-10-16T05:54:15;12.75;;;6.20;;
74541;SDS011;63015;45.378;20.360;2022-10-16T05:56:16;10.07;;;6.50;;
74541;SDS011;63015;45.378;20.360;2022-10-16T05:58:17;14.38;;;6.25;;
74541;SDS011;63015;45.378;20.360;2022-10-16T06:00:17;7.85;;;5.13;;
74541;SDS011;63015;45.378;20.360;2022-10-16T06:02:18;14.52;;;5.80;;
74541;SDS011;63015;45.378;20.360;2022-10-16T06:04:18;11.13;;;5.50;;
74541;SDS011;63015;45.378;20.360;2022-10-16T06:06:20;10.73;;;6.03;;
74541;SDS011;63015;45.378;20.360;2022-10-16T06:08:22;9.13;;;4.97;;
74541;SDS011;63015;45.378;20.360;2022-10-16T06:10:23;10.73;;;5.68;;
74541;SDS011;63015;45.378;20.360;2022-10-16T06:12:24;10.02;;;6.03;;
74541;SDS011;63015;45.378;20.360;2022-10-16T06:14:24;7.45;;;4.97;;
74541;SDS011;63015;45.378;20.360;2022-10-16T06:16:26;12.02;;;5.53;;
74541;SDS011;63015;45.378;20.360;2022-10-16T06:18:27;9.82;;;5.07;;
74541;SDS011;63015;45.378;20.360;2022-10-16T06:20:28;10.20;;;5.78;;
74541;SDS011;63015;45.378;20.360;2022-10-16T06:22:29;11.23;;;5.45;;
74541;SDS011;63015;45.378;20.360;2022-10-16T06:24:29;9.00;;;5.65;;
74541;SDS011;63015;45.378;20.360;2022-10-16T06:26:30;9.32;;;4.25;;
74541;SDS011;63015;45.378;20.360;2022-10-16T06:28:31;9.35;;;4.78;;
74541;SDS011;63015;45.378;20.360;2022-10-16T06:30:32;10.88;;;5.28;;
74541;SDS011;63015;45.378;20.360;2022-10-16T06:32:33;9.30;;;4.60;;
74541;SDS011;63015;45.378;20.360;2022-10-16T06:34:34;17.73;;;5.97;;
74541;SDS011;63015;45.378;20.360;2022-10-16T06:36:34;9.35;;;5.22;;
74541;SDS011;63015;45.378;20.360;2022-10-16T06:38:35;10.25;;;5.45;;
74541;SDS011;63015;45.378;20.360;2022-10-16T06:40:36;9.25;;;5.95;;
74541;SDS011;63015;45.378;20.360;2022-10-16T06:42:37;11.25;;;5.55;;
74541;SDS011;63015;45.378;20.360;2022-10-16T06:44:38;19.50;;;5.45;;
74541;SDS011;63015;45.378;20.360;2022-10-16T06:46:38;8.55;;;5.40;;
74541;SDS011;63015;45.378;20.360;2022-10-16T06:48:39;8.00;;;4.82;;
74541;SDS011;63015;45.378;20.360;2022-10-16T06:50:40;11.25;;;5.63;;
74541;SDS011;63015;45.378;20.360;2022-10-16T06:52:40;19.08;;;5.32;;
74541;SDS011;63015;45.378;20.360;2022-10-16T06:54:41;7.03;;;4.63;;
74541;SDS011;63015;45.378;20.360;2022-10-16T06:56:41;8.88;;;5.07;;
74541;SDS011;63015;45.378;20.360;2022-10-16T06:58:42;8.88;;;4.95;;
74541;SDS011;63015;45.378;20.360;2022-10-16T07:00:43;10.85;;;6.13;;
74541;SDS011;63015;45.378;20.360;2022-10-16T07:02:44;6.72;;;3.78;;
74541;SDS011;63015;45.378;20.360;2022-10-16T07:04:45;9.90;;;5.07;;
74541;SDS011;63015;45.378;20.360;2022-10-16T07:06:45;8.38;;;5.00;;
74541;SDS011;63015;45.378;20.360;2022-10-16T07:08:46;11.32;;;4.65;;
74541;SDS011;63015;45.378;20.360;2022-10-16T07:10:47;10.35;;;5.25;;
74541;SDS011;63015;45.378;20.360;2022-10-16T07:12:48;9.88;;;4.63;;
74541;SDS011;63015;45.378;20.360;2022-10-16T07:14:48;9.93;;;5.13;;
74541;SDS011;63015;45.378;20.360;2022-10-16T07:16:52;7.63;;;3.92;;
74541;SDS011;63015;45.378;20.360;2022-10-16T07:18:53;7.00;;;4.43;;
74541;SDS011;63015;45.378;20.360;2022-10-16T07:21:05;9.27;;;4.18;;
74541;SDS011;63015;45.378;20.360;2022-10-16T07:23:07;10.43;;;5.13;;
74541;SDS011;63015;45.378;20.360;2022-10-16T07:25:08;8.05;;;4.53;;
74541;SDS011;63015;45.378;20.360;2022-10-16T07:27:08;7.55;;;3.42;;
74541;SDS011;63015;45.378;20.360;2022-10-16T07:29:13;6.15;;;3.47;;
74541;SDS011;63015;45.378;20.360;2022-10-16T07:31:15;6.65;;;4.05;;
74541;SDS011;63015;45.378;20.360;2022-10-16T07:33:17;9.05;;;3.60;;
74541;SDS011;63015;45.378;20.360;2022-10-16T07:35:18;5.30;;;3.85;;
74541;SDS011;63015;45.378;20.360;2022-10-16T07:37:19;8.18;;;4.43;;
74541;SDS011;63015;45.378;20.360;2022-10-16T07:39:19;8.70;;;3.08;;
74541;SDS011;63015;45.378;20.360;2022-10-16T07:41:20;6.30;;;3.90;;
74541;SDS011;63015;45.378;20.360;2022-10-16T07:43:21;7.68;;;3.13;;
74541;SDS011;63015;45.378;20.360;2022-10-16T07:45:21;6.85;;;3.17;;
74541;SDS011;63015;45.378;20.360;2022-10-16T07:47:22;8.02;;;3.97;;
74541;SDS011;63015;45.378;20.360;2022-10-16T07:49:22;5.57;;;3.75;;
74541;SDS011;63015;45.378;20.360;2022-10-16T07:51:24;7.25;;;4.20;;
74541;SDS011;63015;45.378;20.360;2022-10-16T07:53:26;8.48;;;4.38;;
74541;SDS011;63015;45.378;20.360;2022-10-16T07:55:27;8.25;;;3.40;;
74541;SDS011;63015;45.378;20.360;2022-10-16T07:57:27;7.28;;;5.13;;
74541;SDS011;63015;45.378;20.360;2022-10-16T07:59:28;6.78;;;3.92;;
74541;SDS011;63015;45.378;20.360;2022-10-16T08:01:29;7.38;;;4.18;;
74541;SDS011;63015;45.378;20.360;2022-10-16T08:03:29;6.05;;;3.33;;
74541;SDS011;63015;45.378;20.360;2022-10-16T08:05:31;10.95;;;4.90;;
74541;SDS011;63015;45.378;20.360;2022-10-16T08:07:33;6.97;;;4.30;;
74541;SDS011;63015;45.378;20.360;2022-10-16T08:09:34;6.07;;;3.28;;
74541;SDS011;63015;45.378;20.360;2022-10-16T08:11:34;6.80;;;3.88;;
74541;SDS011;63015;45.378;20.360;2022-10-16T08:13:35;7.25;;;5.22;;
74541;SDS011;63015;45.378;20.360;2022-10-16T08:15:36;8.68;;;4.32;;
74541;SDS011;63015;45.378;20.360;2022-10-16T08:17:37;9.68;;;4.35;;
74541;SDS011;63015;45.378;20.360;2022-10-16T08:19:37;12.00;;;5.60;;
74541;SDS011;63015;45.378;20.360;2022-10-16T08:21:38;9.25;;;5.65;;
74541;SDS011;63015;45.378;20.360;2022-10-16T08:23:39;18.48;;;5.05;;
74541;SDS011;63015;45.378;20.360;2022-10-16T08:25:40;9.82;;;4.55;;
74541;SDS011;63015;45.378;20.360;2022-10-16T08:27:41;7.38;;;5.30;;
74541;SDS011;63015;45.378;20.360;2022-10-16T08:29:41;8.25;;;3.90;;
74541;SDS011;63015;45.378;20.360;2022-10-16T08:31:42;8.55;;;4.85;;
74541;SDS011;63015;45.378;20.360;2022-10-16T08:33:44;9.60;;;4.88;;
74541;SDS011;63015;45.378;20.360;2022-10-16T08:35:50;6.65;;;3.38;;
74541;SDS011;63015;45.378;20.360;2022-10-16T08:37:52;6.55;;;2.92;;
74541;SDS011;63015;45.378;20.360;2022-10-16T08:39:53;9.13;;;4.47;;
74541;SDS011;63015;45.378;20.360;2022-10-16T08:42:11;7.57;;;4.40;;
74541;SDS011;63015;45.378;20.360;2022-10-16T08:49:10;8.35;;;3.90;;
74541;SDS011;63015;45.378;20.360;2022-10-16T08:51:22;7.03;;;3.17;;
74541;SDS011;63015;45.378;20.360;2022-10-16T08:53:36;7.65;;;3.78;;
74541;SDS011;63015;45.378;20.360;2022-10-16T08:55:46;8.43;;;3.08;;
74541;SDS011;63015;45.378;20.360;2022-10-16T08:57:52;7.20;;;4.20;;
74541;SDS011;63015;45.378;20.360;2022-10-16T08:59:53;9.05;;;3.70;;
74541;SDS011;63015;45.378;20.360;2022-10-16T09:01:55;7.10;;;3.60;;
74541;SDS011;63015;45.378;20.360;2022-10-16T09:12:55;7.95;;;4.90;;
74541;SDS011;63015;45.378;20.360;2022-10-16T09:17:26;7.70;;;4.00;;
74541;SDS011;63015;45.378;20.360;2022-10-16T09:19:40;9.45;;;4.38;;
74541;SDS011;63015;45.378;20.360;2022-10-16T09:21:48;9.65;;;5.25;;
74541;SDS011;63015;45.378;20.360;2022-10-16T09:23:48;5.85;;;2.97;;
74541;SDS011;63015;45.378;20.360;2022-10-16T09:25:50;8.15;;;3.72;;
74541;SDS011;63015;45.378;20.360;2022-10-16T09:27:52;10.38;;;4.50;;
74541;SDS011;63015;45.378;20.360;2022-10-16T09:29:54;8.98;;;4.05;;
74541;SDS011;63015;45.378;20.360;2022-10-16T09:31:55;10.65;;;4.38;;
74541;SDS011;63015;45.378;20.360;2022-10-16T09:34:13;8.25;;;3.90;;
74541;SDS011;63015;45.378;20.360;2022-10-16T09:36:27;7.68;;;4.40;;
74541;SDS011;63015;45.378;20.360;2022-10-16T09:38:30;11.10;;;4.15;;
74541;SDS011;63015;45.378;20.360;2022-10-16T09:40:37;6.93;;;3.60;;
74541;SDS011;63015;45.378;20.360;2022-10-16T09:42:39;7.75;;;3.75;;
74541;SDS011;63015;45.378;20.360;2022-10-16T09:44:40;12.10;;;4.15;;
74541;SDS011;63015;45.378;20.360;2022-10-16T09:46:41;6.32;;;3.55;;
74541;SDS011;63015;45.378;20.360;2022-10-16T09:48:47;6.47;;;3.25;;
74541;SDS011;63015;45.378;20.360;2022-10-16T09:50:59;8.05;;;2.95;;
74541;SDS011;63015;45.378;20.360;2022-10-16T09:53:03;7.45;;;3.20;;
74541;SDS011;63015;45.378;20.360;2022-10-16T09:55:15;9.02;;;2.90;;
74541;SDS011;63015;45.378;20.360;2022-10-16T09:57:18;7.03;;;2.80;;
74541;SDS011;63015;45.378;20.360;2022-10-16T09:59:21;6.32;;;2.60;;
74541;SDS011;63015;45.378;20.360;2022-10-16T10:01:47;8.00;;;2.72;;
74541;SDS011;63015;45.378;20.360;2022-10-16T10:03:50;8.25;;;2.95;;
74541;SDS011;63015;45.378;20.360;2022-10-16T10:06:03;5.80;;;2.92;;
74541;SDS011;63015;45.378;20.360;2022-10-16T10:08:15;6.28;;;3.03;;
74541;SDS011;63015;45.378;20.360;2022-10-16T10:10:22;7.35;;;3.00;;
74541;SDS011;63015;45.378;20.360;2022-10-16T10:12:31;4.20;;;2.13;;
74541;SDS011;63015;45.378;20.360;2022-10-16T10:14:42;8.23;;;2.25;;
74541;SDS011;63015;45.378;20.360;2022-10-16T10:16:46;5.75;;;2.08;;
74541;SDS011;63015;45.378;20.360;2022-10-16T10:18:57;9.68;;;2.70;;
74541;SDS011;63015;45.378;20.360;2022-10-16T10:20:59;9.80;;;2.72;;
74541;SDS011;63015;45.378;20.360;2022-10-16T10:23:13;6.47;;;3.10;;
74541;SDS011;63015;45.378;20.360;2022-10-16T10:25:32;5.32;;;2.35;;
74541;SDS011;63015;45.378;20.360;2022-10-16T10:32:43;5.93;;;2.55;;
74541;SDS011;63015;45.378;20.360;2022-10-16T10:39:37;5.15;;;2.25;;
74541;SDS011;63015;45.378;20.360;2022-10-16T10:46:08;8.60;;;2.83;;
74541;SDS011;63015;45.378;20.360;2022-10-16T10:51:04;6.65;;;2.97;;
74541;SDS011;63015;45.378;20.360;2022-10-16T10:58:01;5.15;;;2.55;;
74541;SDS011;63015;45.378;20.360;2022-10-16T11:05:44;5.55;;;2.55;;
74541;SDS011;63015;45.378;20.360;2022-10-16T11:10:04;6.45;;;2.70;;
74541;SDS011;63015;45.378;20.360;2022-10-16T11:12:29;7.10;;;2.72;;
74541;SDS011;63015;45.378;20.360;2022-10-16T11:14:58;6.57;;;2.88;;
74541;SDS011;63015;45.378;20.360;2022-10-16T11:17:05;9.63;;;3.22;;
74541;SDS011;63015;45.378;20.360;2022-10-16T11:22:09;5.57;;;3.00;;
74541;SDS011;63015;45.378;20.360;2022-10-16T11:26:44;7.65;;;3.45;;
74541;SDS011;63015;45.378;20.360;2022-10-16T11:28:48;6.25;;;3.42;;
74541;SDS011;63015;45.378;20.360;2022-10-16T11:30:54;6.25;;;2.97;;
74541;SDS011;63015;45.378;20.360;2022-10-16T11:35:14;7.05;;;3.33;;
74541;SDS011;63015;45.378;20.360;2022-10-16T11:37:41;10.27;;;3.17;;
74541;SDS011;63015;45.378;20.360;2022-10-16T11:39:46;7.80;;;3.10;;
74541;SDS011;63015;45.378;20.360;2022-10-16T11:41:49;6.95;;;3.10;;
74541;SDS011;63015;45.378;20.360;2022-10-16T11:46:05;8.88;;;3.10;;
74541;SDS011;63015;45.378;20.360;2022-10-16T11:48:32;7.95;;;3.00;;
74541;SDS011;63015;45.378;20.360;2022-10-16T11:50:56;7.75;;;3.03;;
74541;SDS011;63015;45.378;20.360;2022-10-16T11:55:23;6.10;;;2.85;;
74541;SDS011;63015;45.378;20.360;2022-10-16T11:57:36;7.50;;;3.05;;
74541;SDS011;63015;45.378;20.360;2022-10-16T11:59:43;5.85;;;2.63;;
74541;SDS011;63015;45.378;20.360;2022-10-16T12:01:53;6.47;;;2.72;;
74541;SDS011;63015;45.378;20.360;2022-10-16T12:04:22;5.40;;;2.55;;
74541;SDS011;63015;45.378;20.360;2022-10-16T12:06:59;5.80;;;2.75;;
74541;SDS011;63015;45.378;20.360;2022-10-16T12:09:11;11.98;;;2.80;;
74541;SDS011;63015;45.378;20.360;2022-10-16T12:13:27;8.02;;;2.58;;
74541;SDS011;63015;45.378;20.360;2022-10-16T12:15:29;5.57;;;2.80;;
74541;SDS011;63015;45.378;20.360;2022-10-16T12:17:36;6.45;;;2.53;;
74541;SDS011;63015;45.378;20.360;2022-10-16T12:19:38;5.47;;;2.33;;
74541;SDS011;63015;45.378;20.360;2022-10-16T12:21:38;5.13;;;2.65;;
74541;SDS011;63015;45.378;20.360;2022-10-16T12:23:47;5.20;;;2.30;;
74541;SDS011;63015;45.378;20.360;2022-10-16T12:25:53;6.20;;;2.22;;
74541;SDS011;63015;45.378;20.360;2022-10-16T12:28:03;7.38;;;2.80;;
74541;SDS011;63015;45.378;20.360;2022-10-16T12:30:20;5.97;;;2.65;;
74541;SDS011;63015;45.378;20.360;2022-10-16T12:34:40;4.78;;;2.55;;
74541;SDS011;63015;45.378;20.360;2022-10-16T12:36:43;5.63;;;2.50;;
74541;SDS011;63015;45.378;20.360;2022-10-16T12:40:59;6.13;;;2.70;;
74541;SDS011;63015;45.378;20.360;2022-10-16T12:43:13;6.70;;;2.63;;
74541;SDS011;63015;45.378;20.360;2022-10-16T12:45:29;5.57;;;2.20;;
74541;SDS011;63015;45.378;20.360;2022-10-16T12:49:37;5.13;;;2.38;;
74541;SDS011;63015;45.378;20.360;2022-10-16T12:51:39;5.45;;;3.03;;
74541;SDS011;63015;45.378;20.360;2022-10-16T12:53:41;7.18;;;2.88;;
74541;SDS011;63015;45.378;20.360;2022-10-16T12:55:43;5.85;;;2.63;;
74541;SDS011;63015;45.378;20.360;2022-10-16T13:01:17;5.38;;;2.90;;
74541;SDS011;63015;45.378;20.360;2022-10-16T13:18:03;6.80;;;2.83;;
74541;SDS011;63015;45.378;20.360;2022-10-16T13:22:36;5.32;;;2.65;;
74541;SDS011;63015;45.378;20.360;2022-10-16T13:29:18;9.70;;;3.95;;
74541;SDS011;63015;45.378;20.360;2022-10-16T13:31:21;6.57;;;3.20;;
74541;SDS011;63015;45.378;20.360;2022-10-16T13:33:34;13.48;;;3.35;;
74541;SDS011;63015;45.378;20.360;2022-10-16T13:35:53;7.13;;;3.33;;
74541;SDS011;63015;45.378;20.360;2022-10-16T13:40:18;9.20;;;3.42;;
74541;SDS011;63015;45.378;20.360;2022-10-16T13:42:23;6.18;;;3.30;;
74541;SDS011;63015;45.378;20.360;2022-10-16T13:44:26;4.72;;;2.58;;
74541;SDS011;63015;45.378;20.360;2022-10-16T13:46:27;7.18;;;3.03;;
74541;SDS011;63015;45.378;20.360;2022-10-16T13:48:30;5.22;;;3.17;;
74541;SDS011;63015;45.378;20.360;2022-10-16T13:50:32;8.32;;;3.00;;
74541;SDS011;63015;45.378;20.360;2022-10-16T13:52:32;8.18;;;3.50;;
74541;SDS011;63015;45.378;20.360;2022-10-16T13:54:33;6.18;;;2.83;;
74541;SDS011;63015;45.378;20.360;2022-10-16T13:56:34;6.50;;;3.50;;
74541;SDS011;63015;45.378;20.360;2022-10-16T13:58:34;7.53;;;3.10;;
74541;SDS011;63015;45.378;20.360;2022-10-16T14:00:35;12.57;;;2.90;;
74541;SDS011;63015;45.378;20.360;2022-10-16T14:02:37;6.00;;;2.70;;
74541;SDS011;63015;45.378;20.360;2022-10-16T14:04:40;6.43;;;3.67;;